Pagrindinis puslapis
METAR-TAF:

METAR-TAF

Oro uostai :

Kupangas, Indonezija

platuma: 10-10-17S, ilguma: 123-40-16E, Aukštis: 102 m

Dabartinis oras

Ataskaita buvo paskelbta 30 minutes, ne 08:00 UTC
Vėjas 9 kt iš Šiaurės Vakarų
Temperatūra 30°C
Drėgmė 75%
Slėgis 1008 hPa
Matomumas 10 km arba daugiau
Mažai debesys ne aukštis 1500 ft, Liūtiniai kamuoliniai debesys.
Išsisklaidę debesys ne aukštis 1600 ft

METAR: WATT 230800Z 32009KT 9999 FEW015CB SCT016 30/25 Q1008 NOSIG RMK CB TO NE

Laikas: 15:30 (08:30 UTC)

Prognozė

Ataskaita buvo paskelbta 3 valandos ir 30 minutes, ne 05:00 UTC
Prognozė galioja nuo 23 metu 06 UTC su 24 metu 06 UTC
Vėjas 12 kt iš Šiaurės Vakarų
Matomumas 10 km arba daugiau
Išsisklaidę debesys ne aukštis 1700 ft
Tapsmas
nuo 23 metu 10 UTC su 23 metu 12 UTC
Vėjas 5 kt iš Vakarų/Šiaurės Vakarų

TAF: WATT 230500Z 2306/2406 32012KT 9999 SCT017 BECMG 2310/2312 30005KT

Orai ataskaitas ir orų prognozės (METAR, TAF).

turimą stotys yra geltonos ir raudonos taškus žemėlapyje.

Perkelti pele per norėdami pamatyti stoties vardą.

Tada spustelėkite, norėdami matyti oro stebėjimo ir prognozės.

Norėdami pakeisti žemėlapį: spustelėkite ant žalios mygtukų su juodo kryžiaus žemyn,; žalią mygtuką su brūkšneliu, jei norite nutolinti; arba žalių rodyklių gretimoms žemėlapius.


METAR-TAF: